CTK weather

Ingersoll Airport
Canton, Illinois, United States

Public forecast

Using degrees Fahrenheit for public forecast. Weather courtesy of forecast.io.

Closest aviation weather report (METAR) to Ingersoll Airport

Closest report is General Wayne A. Downing Peoria International Airport, 18.3 nm (33.9 km) ENE. Retrieved 2020/07/04 14:54 UTC (9 minutes ago):

KPIA 041454Z 00000KT 10SM CLR 30/19 A3004 RMK AO2 SLP165 T03000189 50001

Closest aviation forecast (TAF) to Ingersoll Airport

Closest forecast is General Wayne A. Downing Peoria International Airport, 18.3 nm (33.9 km) ENE. Retrieved 2020/07/04 12:22 UTC (3 hours ago):

TAF KPIA 041120Z 0412/0512 05005KT P6SM SCT250 FM041600 05005KT P6SM SCT045 FM050000 06003KT P6SM FEW150